Flight Track Log - Related Links

Times and Time Zones

All times are in EDT time to prevent confusion due to time zone crossing. See the EMD21 flight status page for this flight to view local times or setup timezone preferences in your user account.

Time Position Orientation Groundspeed Altitude Reporting Facility
EDT Latitude Longitude Course Direction KTS MPH feet Rate Location/Type
Wed 06:52:21 PM 33.8850 -98.4894 90° East 114 131 1,800  Level Fort Worth Center
Wed 06:52:57 PM 33.8850 -98.4644 90° East 128 147 2,400 1,113 Climbing Fort Worth Center
Wed 06:53:58 PM 33.8917 -98.4194 80° East 133 153 3,600 1,200 Climbing Fort Worth Center
Wed 06:55:27 PM 33.9006 -98.3494 81° East 159 183 5,400 1,208 Climbing Fort Worth Center
Wed 06:56:27 PM 33.8989 -98.2994 92° East 159 183 6,600 1,200 Climbing Fort Worth Center
Wed 06:57:27 PM 33.8972 -98.2467 92° East 159 183 7,800 1,150 Climbing Fort Worth Center
Wed 06:58:27 PM 33.8953 -98.2017 93° East 159 183 8,900 1,050 Climbing Fort Worth Center
Wed 06:59:27 PM 33.8894 -98.1467 97° East 159 183 9,900 1,100 Climbing Fort Worth Center
Wed 07:00:27 PM 33.8836 -98.0864 97° East 159 183 11,100 1,100 Climbing Fort Worth Center
Wed 07:01:27 PM 33.8733 -98.0339 103° East 159 183 12,100 950 Climbing Fort Worth Center
Wed 07:02:27 PM 33.8631 -97.9789 103° East 159 183 13,000 450 Climbing Fort Worth Center
Wed 07:03:27 PM 33.8531 -97.9261 103° East 172 198 13,000  Level Fort Worth Center
Wed 07:04:27 PM 33.8386 -97.8561 104° East 195 224 13,000  Level Fort Worth Center
Wed 07:05:27 PM 33.8264 -97.7761 100° East 212 244 13,000  Level Fort Worth Center
Wed 07:06:27 PM 33.8142 -97.7058 102° East 212 244 13,000  Level Fort Worth Center
Wed 07:07:27 PM 33.8308 -97.6436 72° East 204 235 13,000  Level Fort Worth Center
Wed 07:08:27 PM 33.8622 -97.5936 53° Northeast 199 229 13,000  Level Fort Worth Center
Wed 07:09:27 PM 33.8917 -97.5386 57° Northeast 199 229 13,000  Level Fort Worth Center
Wed 07:10:27 PM 33.9269 -97.4761 56° Northeast 199 229 13,000  Level Fort Worth Center
Wed 07:11:27 PM 33.9625 -97.4211 52° Northeast 192 221 13,000  Level Fort Worth Center
Wed 07:12:27 PM 33.9939 -97.3608 58° Northeast 192 221 13,000  Level Fort Worth Center
Wed 07:13:27 PM 34.0250 -97.3108 53° Northeast 192 221 13,000  Level Fort Worth Center
Wed 07:14:27 PM 34.0583 -97.2531 55° Northeast 192 221 13,000  Level Fort Worth Center
Wed 07:15:27 PM 34.0897 -97.1953 57° Northeast 192 221 13,000  Level Fort Worth Center
Wed 07:16:27 PM 34.1167 -97.1500 54° Northeast 192 221 13,000  Level Fort Worth Center
Wed 07:17:27 PM 34.1458 -97.0922 59° Northeast 192 221 13,000  Level Fort Worth Center
Wed 07:18:27 PM 34.1811 -97.0394 51° Northeast 192 221 13,000  Level Fort Worth Center
Wed 07:19:27 PM 34.2122 -96.9764 59° Northeast 192 221 13,000  Level Fort Worth Center
Wed 07:20:27 PM 34.2453 -96.9211 54° Northeast 197 227 13,000  Level Fort Worth Center
Wed 07:21:27 PM 34.2786 -96.8606 56° Northeast 197 227 13,000  Level Fort Worth Center
Wed 07:22:27 PM 34.3117 -96.8050 54° Northeast 197 227 13,000  Level Fort Worth Center
Wed 07:23:27 PM 34.3447 -96.7494 54° Northeast 197 227 13,000  Level Fort Worth Center
Wed 07:24:27 PM 34.3758 -96.6889 58° Northeast 202 232 13,000  Level Fort Worth Center
Wed 07:25:27 PM 34.4108 -96.6331 53° Northeast 202 232 13,000  Level Fort Worth Center
Wed 07:26:27 PM 34.4419 -96.5725 58° Northeast 202 232 13,000  Level Fort Worth Center
Wed 07:27:27 PM 34.4747 -96.5167 55° Northeast 202 232 13,000 -33 Level Fort Worth Center
Wed 07:29:27 PM 34.5406 -96.4000 56° Northeast 202 232 12,900 -400 Descending Fort Worth Center
Wed 07:30:27 PM 34.5756 -96.3367 56° Northeast 208 239 11,800 -1,250 Descending Fort Worth Center
Wed 07:31:27 PM 34.6147 -96.2656 56° Northeast 226 260 10,400 -1,300 Descending Fort Worth Center
Wed 07:32:27 PM 34.6517 -96.1969 57° Northeast 239 275 9,200 -1,350 Descending Fort Worth Center
Wed 07:33:27 PM 34.6925 -96.1281 54° Northeast 239 275 7,700 -1,050 Descending Fort Worth Center
Wed 07:34:27 PM 34.7314 -96.0567 56° Northeast 239 275 7,100 -600 Descending Fort Worth Center

Login

Don't have an account? Register now (free) for customized features, flight alerts, and more!